Time;durP1;ratioP1;P1;durP2;ratioP2;P2;SDS_P1;SDS_P2;PMS_P1;PMS_P2;Temp;Humidity;BMP_temperature;BMP_pressure;BME280_temperature;BME280_humidity;BME280_pressure;Samples;Min_cycle;Max_cycle;Signal;HPM_P1;HPM_P2
2022/01/16 00:04:47;;;;;;;37.00;22.60;;;;;;;-5.69;84.12;98324.22;110021;1250;71691;-66
2022/01/16 00:07:15;;;;;;;57.50;30.60;;;;;;;-5.74;84.02;98319.77;110106;1248;68775;-68
2022/01/16 00:09:44;;;;;;;45.60;26.40;;;;;;;-5.82;83.05;98325.48;109994;1250;69577;-68
2022/01/16 00:12:18;;;;;;;61.20;31.80;;;;;;;-5.88;82.28;98335.30;110029;1249;59766;-69
2022/01/16 00:14:47;;;;;;;48.50;26.10;;;;;;;-5.98;82.05;98333.73;109932;1250;59688;-66
2022/01/16 00:17:19;;;;;;;55.40;29.80;;;;;;;-6.03;81.98;98334.53;110060;1250;72123;-66
2022/01/16 00:19:48;;;;;;;66.50;38.20;;;;;;;-6.09;82.10;98336.19;110202;1249;67963;-65
2022/01/16 00:22:17;;;;;;;50.40;31.30;;;;;;;-6.19;82.46;98341.36;109967;1248;68755;-66
2022/01/16 00:24:47;;;;;;;80.00;42.30;;;;;;;-6.29;82.03;98346.55;110042;1247;59685;-68
2022/01/16 00:27:17;;;;;;;86.50;45.60;;;;;;;-6.39;81.68;98343.06;110022;1250;59753;-67
2022/01/16 00:29:46;;;;;;;65.90;38.50;;;;;;;-6.51;81.37;98333.11;109897;1250;72197;-67
2022/01/16 00:32:15;;;;;;;54.50;30.00;;;;;;;-6.62;81.25;98322.50;110086;1248;68216;-67
2022/01/16 00:34:44;;;;;;;58.70;34.50;;;;;;;-6.70;81.21;98324.79;110182;1248;68208;-69
2022/01/16 00:37:14;;;;;;;45.40;24.80;;;;;;;-6.78;81.97;98338.10;110134;1247;59744;-67
2022/01/16 00:39:43;;;;;;;49.50;28.70;;;;;;;-6.79;81.54;98358.41;110240;1247;59685;-69
2022/01/16 00:42:12;;;;;;;53.60;31.90;;;;;;;-6.77;81.92;98352.52;110159;1248;70981;-66
2022/01/16 00:44:41;;;;;;;52.40;28.50;;;;;;;-6.78;81.74;98354.73;110151;1248;68693;-67
2022/01/16 00:47:11;;;;;;;45.70;27.50;;;;;;;-6.80;81.85;98387.06;110156;1247;68670;-68
2022/01/16 00:49:41;;;;;;;41.30;23.90;;;;;;;-6.84;82.33;98382.95;109989;1249;59755;-69
2022/01/16 00:52:11;;;;;;;82.60;46.70;;;;;;;-6.87;82.11;98354.77;110198;1247;59710;-66
2022/01/16 00:54:40;;;;;;;46.70;27.90;;;;;;;-6.92;82.43;98347.10;110168;1248;71496;-66
2022/01/16 00:57:09;;;;;;;61.20;32.70;;;;;;;-6.97;82.33;98339.77;110163;1248;68567;-66
2022/01/16 00:59:40;;;;;;;68.80;36.60;;;;;;;-7.02;82.23;98314.09;110162;1248;68716;-66
2022/01/16 01:02:09;;;;;;;88.60;46.30;;;;;;;-7.08;82.57;98326.92;110172;1247;59686;-67
2022/01/16 01:04:38;;;;;;;98.30;48.40;;;;;;;-7.12;83.09;98368.88;110186;1248;59671;-67
2022/01/16 01:07:07;;;;;;;63.70;33.80;;;;;;;-7.16;83.53;98354.95;110112;1249;71575;-66
2022/01/16 01:09:41;;;;;;;52.60;30.70;;;;;;;-7.18;83.82;98297.83;110020;1250;68588;-68
2022/01/16 01:12:20;;;;;;;72.00;40.00;;;;;;;-7.21;83.60;98271.71;109979;1250;69569;-68
2022/01/16 01:15:08;;;;;;;57.00;29.70;;;;;;;-7.24;83.60;98320.13;110086;1248;60062;-68
2022/01/16 01:17:47;;;;;;;79.00;39.50;;;;;;;-7.27;83.82;98230.48;109966;1250;59673;-68
2022/01/16 01:20:19;;;;;;;64.80;34.30;;;;;;;-7.28;84.83;98210.65;110095;1249;70551;-69
2022/01/16 01:22:51;;;;;;;65.50;33.50;;;;;;;-7.27;84.94;98224.70;110007;1250;68613;-67
2022/01/16 01:25:22;;;;;;;56.40;28.10;;;;;;;-7.24;84.92;98213.23;110060;1249;68650;-67
2022/01/16 01:27:51;;;;;;;26.50;18.10;;;;;;;-7.21;84.50;98228.52;110131;1250;59738;-67
2022/01/16 01:30:24;;;;;;;31.30;17.70;;;;;;;-7.17;83.72;98232.95;110174;1248;59738;-70
2022/01/16 01:32:55;;;;;;;53.60;30.70;;;;;;;-7.09;83.03;98246.76;110209;1248;70523;-67
2022/01/16 01:35:25;;;;;;;38.00;22.20;;;;;;;-7.01;83.44;98277.68;110182;1248;68619;-67
2022/01/16 01:37:54;;;;;;;36.00;22.30;;;;;;;-6.97;83.24;98301.64;109986;1250;69509;-66
2022/01/16 01:40:26;;;;;;;62.90;34.30;;;;;;;-6.97;83.06;98285.52;109971;1250;59739;-66
2022/01/16 01:51:32;;;;;;;52.30;29.50;;;;;;;-7.18;82.80;98271.39;109918;1250;69277;-68
2022/01/16 01:54:05;;;;;;;38.00;23.70;;;;;;;-7.22;82.94;98268.13;109982;1251;59743;-66
2022/01/16 01:56:37;;;;;;;39.80;25.00;;;;;;;-7.25;83.20;98267.26;109719;1250;59715;-66
2022/01/16 01:59:07;;;;;;;45.80;23.90;;;;;;;-7.27;83.20;98274.34;110054;1250;70771;-67
2022/01/16 02:01:36;;;;;;;34.10;20.30;;;;;;;-7.29;82.93;98270.77;110156;1250;67720;-67
2022/01/16 02:04:07;;;;;;;37.00;21.20;;;;;;;-7.30;82.84;98281.77;110039;1250;68487;-67
2022/01/16 02:06:37;;;;;;;29.30;17.60;;;;;;;-7.31;83.02;98278.19;110073;1250;59648;-67
2022/01/16 02:09:07;;;;;;;39.10;24.60;;;;;;;-7.31;83.23;98294.79;110120;1249;59689;-67
2022/01/16 02:11:37;;;;;;;31.10;19.80;;;;;;;-7.30;83.36;98298.02;109736;1252;71455;-69
2022/01/16 02:14:22;;;;;;;41.00;20.50;;;;;;;-7.27;83.20;98309.23;110031;1250;68510;-69
2022/01/16 02:28:41;;;;;;;48.60;27.00;;;;;;;-6.93;83.23;98306.08;110146;1250;67729;-68
2022/01/16 02:31:19;;;;;;;22.60;14.70;;;;;;;-6.84;83.28;98306.67;109989;1250;69392;-68
2022/01/16 02:36:49;;;;;;;50.70;27.50;;;;;;;-6.71;82.86;98311.05;110108;1250;59752;-68
2022/01/16 02:39:25;;;;;;;49.60;29.50;;;;;;;-6.66;82.74;98308.71;110153;1247;71018;-67
2022/01/16 02:41:56;;;;;;;23.90;15.40;;;;;;;-6.61;82.62;98314.36;110187;1248;67848;-66
2022/01/16 02:46:59;;;;;;;36.50;23.90;;;;;;;-6.51;82.59;98326.66;110171;1247;59657;-66
2022/01/16 02:49:32;;;;;;;41.20;23.00;;;;;;;-6.46;82.41;98320.94;110107;1249;59634;-66
2022/01/16 02:52:07;;;;;;;33.80;18.80;;;;;;;-6.43;82.02;98316.91;110060;1247;70627;-66
2022/01/16 02:54:39;;;;;;;36.00;20.20;;;;;;;-6.39;81.70;98319.47;109990;1250;68503;-67
2022/01/16 02:57:11;;;;;;;33.20;20.60;;;;;;;-6.38;81.61;98326.45;110138;1248;69424;-66
2022/01/16 02:59:48;;;;;;;60.60;33.60;;;;;;;-6.35;81.85;98323.26;110232;1247;59677;-66
2022/01/16 03:02:19;;;;;;;33.90;20.30;;;;;;;-6.33;82.02;98324.45;110212;1247;59751;-67
2022/01/16 03:04:49;;;;;;;30.90;19.70;;;;;;;-6.30;81.73;98322.11;110191;1247;71488;-68
2022/01/16 03:07:19;;;;;;;29.30;16.60;;;;;;;-6.27;81.51;98319.09;110180;1249;68715;-69
2022/01/16 03:10:32;;;;;;;20.60;12.80;;;;;;;-6.23;81.27;98324.04;110107;1247;68621;-68
2022/01/16 03:13:03;;;;;;;51.00;26.90;;;;;;;-6.19;81.67;98322.20;110261;1248;59750;-69
2022/01/16 03:15:32;;;;;;;44.60;23.30;;;;;;;-6.17;82.11;98321.20;110165;1247;59727;-68
2022/01/16 03:23:24;;;;;;;27.70;16.80;;;;;;;-6.07;81.60;98321.44;110194;1247;68488;-66
2022/01/16 03:25:54;;;;;;;62.20;31.50;;;;;;;-6.03;81.93;98320.96;110180;1249;59740;-66
2022/01/16 03:28:25;;;;;;;46.20;25.60;;;;;;;-6.02;82.56;98318.59;110050;1250;59755;-69
2022/01/16 03:30:55;;;;;;;84.70;45.40;;;;;;;-6.01;82.65;98323.71;110240;1247;71632;-67
2022/01/16 03:33:25;;;;;;;58.00;33.60;;;;;;;-6.01;81.90;98328.11;110047;1249;68716;-69
2022/01/16 03:35:55;;;;;;;;;;;;;;;-6.02;81.64;98318.25;110248;1250;68627;-67
2022/01/16 03:38:24;;;;;;;58.40;33.10;;;;;;;-6.06;81.65;98316.36;110239;1247;59773;-69
2022/01/16 03:40:54;;;;;;;54.30;31.80;;;;;;;-6.08;81.49;98314.31;110187;1248;59691;-66
2022/01/16 03:43:23;;;;;;;66.40;39.30;;;;;;;-6.08;81.05;98315.67;110069;1248;71579;-65
2022/01/16 03:45:53;;;;;;;69.20;37.00;;;;;;;-6.07;81.05;98320.77;110160;1248;68735;-68
2022/01/16 03:48:23;;;;;;;50.00;30.30;;;;;;;-6.05;81.02;98323.50;110220;1248;69632;-66
2022/01/16 03:50:52;;;;;;;39.50;21.30;;;;;;;-6.03;81.00;98326.22;110159;1247;59746;-67
2022/01/16 03:53:21;;;;;;;40.60;22.70;;;;;;;-6.00;80.91;98327.60;110186;1247;59668;-67
2022/01/16 03:55:51;;;;;;;100.50;50.10;;;;;;;-5.97;81.22;98327.96;110192;1248;71329;-66
2022/01/16 03:58:20;;;;;;;44.60;26.10;;;;;;;-5.97;81.43;98327.63;110157;1250;67916;-68
2022/01/16 04:00:50;;;;;;;52.90;28.90;;;;;;;-5.94;80.56;98329.01;109936;1250;68809;-67
2022/01/16 04:03:20;;;;;;;54.60;31.40;;;;;;;-5.92;80.31;98334.95;110222;1247;59784;-66
2022/01/16 04:05:50;;;;;;;86.00;45.10;;;;;;;-5.90;80.59;98340.55;110057;1250;60139;-68
2022/01/16 04:08:20;;;;;;;69.60;37.10;;;;;;;-5.93;81.83;98343.77;110216;1249;71613;-67
2022/01/16 04:10:50;;;;;;;61.80;31.50;;;;;;;-5.94;81.57;98350.05;110172;1249;67819;-66
2022/01/16 04:13:21;;;;;;;66.00;34.50;;;;;;;-5.93;81.65;98350.90;110145;1248;69284;-68
2022/01/16 04:15:50;;;;;;;42.60;23.40;;;;;;;-5.95;82.08;98356.33;110224;1248;59745;-66
2022/01/16 04:18:20;;;;;;;60.10;29.70;;;;;;;-5.95;81.63;98363.12;110179;1248;59699;-65
2022/01/16 04:20:50;;;;;;;54.80;28.10;;;;;;;-5.95;81.94;98363.45;110051;1248;71346;-66
2022/01/16 04:23:20;;;;;;;41.30;22.30;;;;;;;-5.98;81.78;98366.31;110057;1249;67770;-68
2022/01/16 04:25:50;;;;;;;64.40;32.20;;;;;;;-5.96;81.21;98375.50;110172;1248;69298;-67
2022/01/16 04:28:24;;;;;;;44.80;24.40;;;;;;;-5.95;81.16;98372.98;110208;1248;59749;-66
2022/01/16 04:30:54;;;;;;;59.10;31.60;;;;;;;-5.92;80.92;98381.13;110218;1247;59670;-67
2022/01/16 04:33:24;;;;;;;47.40;27.70;;;;;;;-5.89;81.04;98372.47;110246;1247;70489;-68
2022/01/16 04:35:54;;;;;;;47.50;27.30;;;;;;;-5.85;81.03;98370.98;110161;1249;67111;-66
2022/01/16 04:38:24;;;;;;;76.00;37.70;;;;;;;-5.84;81.30;98366.90;109940;1249;68414;-68
2022/01/16 04:43:52;;;;;;;44.90;23.90;;;;;;;-5.82;81.09;98368.11;110223;1247;59759;-69
2022/01/16 04:46:25;;;;;;;45.90;26.30;;;;;;;-5.81;80.86;98361.16;110258;1247;71515;-68
2022/01/16 04:48:57;;;;;;;63.70;33.90;;;;;;;-5.79;81.08;98360.48;110247;1247;68055;-67
2022/01/16 04:51:28;;;;;;;44.30;21.60;;;;;;;-5.77;81.47;98366.61;110187;1247;68775;-66
2022/01/16 04:53:58;;;;;;;81.00;41.20;;;;;;;-5.75;81.59;98362.89;110202;1247;59710;-66
2022/01/16 04:56:28;;;;;;;53.40;29.80;;;;;;;-5.74;82.50;98361.02;110174;1247;59685;-66
2022/01/16 04:58:57;;;;;;;46.30;25.30;;;;;;;-5.72;82.21;98360.36;110173;1247;70925;-68
2022/01/16 05:01:26;;;;;;;31.70;20.10;;;;;;;-5.69;81.74;98358.34;110119;1250;68777;-67
2022/01/16 05:03:56;;;;;;;39.40;24.20;;;;;;;-5.65;81.41;98364.66;110149;1248;68846;-65
2022/01/16 05:06:25;;;;;;;63.30;36.30;;;;;;;-5.62;81.42;98360.45;109975;1250;59777;-64
2022/01/16 05:08:55;;;;;;;39.10;24.10;;;;;;;-5.59;81.81;98359.44;110001;1250;59773;-67
2022/01/16 05:11:26;;;;;;;45.60;24.10;;;;;;;-5.58;81.23;98360.29;110161;1248;71388;-67
2022/01/16 05:16:39;;;;;;;59.50;30.60;;;;;;;-5.60;81.20;98360.95;110136;1250;68600;-68
2022/01/16 05:19:13;;;;;;;38.70;24.00;;;;;;;-5.63;81.20;98362.82;110034;1247;59720;-68
2022/01/16 05:21:42;;;;;;;36.60;22.40;;;;;;;-5.63;81.08;98361.13;110179;1247;59722;-69
2022/01/16 05:24:12;;;;;;;31.10;20.00;;;;;;;-5.65;80.93;98365.67;110228;1247;71505;-67
2022/01/16 05:26:44;;;;;;;34.10;20.80;;;;;;;-5.66;80.76;98366.87;109927;1248;68609;-67
2022/01/16 05:29:13;;;;;;;30.60;20.70;;;;;;;-5.65;80.97;98376.38;110194;1248;68871;-66
2022/01/16 05:31:45;;;;;;;35.70;22.00;;;;;;;-5.62;80.90;98379.98;109846;1250;60100;-66
2022/01/16 05:34:18;;;;;;;39.60;24.70;;;;;;;-5.58;80.89;98371.84;110162;1250;59715;-68
2022/01/16 05:36:47;;;;;;;48.10;29.10;;;;;;;-5.54;81.17;98373.23;110203;1249;71516;-66
2022/01/16 05:39:17;;;;;;;42.60;25.90;;;;;;;-5.50;81.18;98379.71;110021;1250;67302;-67
2022/01/16 05:41:46;;;;;;;34.00;21.10;;;;;;;-5.45;80.76;98378.73;110080;1250;69282;-65
2022/01/16 05:44:15;;;;;;;76.80;37.30;;;;;;;-5.41;80.53;98384.70;110188;1250;59694;-69
2022/01/16 05:46:45;;;;;;;38.30;24.00;;;;;;;-5.38;81.25;98388.44;110067;1250;59691;-66
2022/01/16 05:49:15;;;;;;;;;;;;;;;-5.35;80.91;98389.49;110018;1249;71528;-66
2022/01/16 05:51:44;;;;;;;44.60;22.00;;;;;;;-5.33;80.91;98384.56;110118;1250;67815;-70
2022/01/16 05:54:13;;;;;;;46.50;27.80;;;;;;;-5.32;81.11;98388.31;110028;1249;69564;-66
2022/01/16 05:56:42;;;;;;;34.70;22.70;;;;;;;-5.30;80.82;98386.64;110167;1249;59753;-65
2022/01/16 05:59:11;;;;;;;53.80;29.10;;;;;;;-5.27;80.88;98391.57;110222;1249;59758;-67
2022/01/16 06:01:41;;;;;;;48.00;25.90;;;;;;;-5.25;80.98;98393.80;110203;1250;70605;-68
2022/01/16 06:04:10;;;;;;;19.30;12.30;;;;;;;-5.21;80.91;98400.96;110170;1249;66779;-66
2022/01/16 06:06:39;;;;;;;48.40;27.90;;;;;;;-5.18;80.49;98406.05;109906;1250;69425;-66
2022/01/16 06:09:07;;;;;;;34.80;20.10;;;;;;;-5.17;80.77;98408.63;110058;1246;59667;-69
2022/01/16 06:11:37;;;;;;;58.00;29.20;;;;;;;-5.13;80.74;98409.32;110159;1247;59679;-66
2022/01/16 06:14:06;;;;;;;21.30;13.50;;;;;;;-5.09;80.80;98409.00;110025;1250;71621;-68
2022/01/16 06:16:35;;;;;;;54.00;29.70;;;;;;;-5.06;80.19;98409.70;110165;1247;68599;-66
2022/01/16 06:19:04;;;;;;;51.60;26.50;;;;;;;-5.04;80.51;98408.52;110160;1248;70229;-66
2022/01/16 06:21:33;;;;;;;38.20;21.10;;;;;;;-5.02;80.49;98410.06;110183;1250;59736;-66
2022/01/16 06:24:03;;;;;;;41.40;23.90;;;;;;;-5.00;80.25;98406.48;110154;1249;59643;-67
2022/01/16 06:26:32;;;;;;;45.00;25.00;;;;;;;-4.99;80.79;98410.40;109705;1250;72244;-65
2022/01/16 06:29:02;;;;;;;63.00;33.40;;;;;;;-4.98;81.25;98411.27;109915;1250;68677;-67
2022/01/16 06:31:31;;;;;;;61.10;35.30;;;;;;;-4.97;82.49;98409.75;110102;1247;69342;-67
2022/01/16 06:34:02;;;;;;;57.00;33.40;;;;;;;-5.00;82.29;98412.10;110134;1248;59741;-67
2022/01/16 06:36:31;;;;;;;44.60;25.80;;;;;;;-5.01;82.34;98410.91;110136;1250;59631;-66
2022/01/16 06:39:08;;;;;;;28.70;16.60;;;;;;;-5.00;81.76;98413.64;109923;1250;70826;-67
2022/01/16 06:41:39;;;;;;;31.10;19.60;;;;;;;-4.95;81.45;98414.69;109957;1250;68542;-66
2022/01/16 06:44:08;;;;;;;44.60;24.20;;;;;;;-4.89;81.22;98418.10;110046;1248;68795;-66
2022/01/16 06:46:40;;;;;;;38.40;23.80;;;;;;;-4.83;81.04;98420.35;109908;1250;59814;-66
2022/01/16 06:49:10;;;;;;;;;;;;;;;-4.78;80.81;98423.45;110137;1250;59704;-66
2022/01/16 06:51:42;;;;;;;49.60;26.60;;;;;;;-4.74;80.42;98424.80;109926;1249;70641;-67
2022/01/16 06:54:20;;;;;;;48.00;25.90;;;;;;;-4.69;80.41;98427.39;110080;1250;67769;-68
2022/01/16 06:56:49;;;;;;;55.30;31.00;;;;;;;-4.63;80.40;98434.05;110077;1250;68681;-67
2022/01/16 06:59:20;;;;;;;;;;;;;;;-4.55;80.66;98441.05;109933;1250;59687;-69
2022/01/16 07:01:50;;;;;;;38.00;21.40;;;;;;;-4.47;80.52;98444.31;110242;1247;59680;-67
2022/01/16 07:04:19;;;;;;;73.90;38.40;;;;;;;-4.38;80.23;98443.31;110188;1250;71499;-69
2022/01/16 07:06:48;;;;;;;42.90;25.40;;;;;;;-4.30;80.43;98439.93;110065;1248;67818;-68
2022/01/16 07:09:18;;;;;;;67.60;38.20;;;;;;;-4.19;80.09;98438.94;110056;1250;69748;-68
2022/01/16 07:11:48;;;;;;;73.60;37.60;;;;;;;-4.04;80.62;98433.19;110075;1248;59690;-67
2022/01/16 07:14:17;;;;;;;62.80;32.40;;;;;;;-3.92;80.30;98428.42;109939;1247;59702;-70
2022/01/16 07:16:47;;;;;;;51.40;28.80;;;;;;;-3.79;80.32;98428.77;109964;1250;70778;-68
2022/01/16 07:19:17;;;;;;;71.90;37.60;;;;;;;-3.60;80.29;98422.46;110039;1250;68126;-68
2022/01/16 07:21:49;;;;;;;65.60;36.80;;;;;;;-3.44;79.90;98422.29;109973;1250;69493;-68
2022/01/16 07:24:18;;;;;;;50.50;30.10;;;;;;;-3.27;79.64;98422.11;110027;1250;59765;-67
2022/01/16 07:26:46;;;;;;;42.70;23.10;;;;;;;-2.80;79.75;98423.35;110155;1247;59732;-69
2022/01/16 07:29:16;;;;;;;53.60;28.80;;;;;;;-2.13;79.10;98429.16;110200;1248;70805;-68
2022/01/16 07:31:45;;;;;;;63.50;34.00;;;;;;;-1.49;76.55;98427.01;110186;1247;67753;-68
2022/01/16 07:34:14;;;;;;;62.30;36.70;;;;;;;-1.21;73.79;98420.08;110137;1248;69401;-67
2022/01/16 07:36:44;;;;;;;61.50;33.90;;;;;;;-1.41;72.54;98423.35;110144;1248;60076;-67
2022/01/16 07:39:13;;;;;;;61.40;35.00;;;;;;;-1.69;73.03;98425.29;109933;1250;59626;-66
2022/01/16 07:41:42;;;;;;;57.00;33.00;;;;;;;-1.89;73.77;98426.80;109954;1250;69862;-68
2022/01/16 07:44:11;;;;;;;61.20;35.60;;;;;;;-1.70;73.90;98425.64;109863;1250;67776;-69
2022/01/16 07:46:40;;;;;;;66.30;35.80;;;;;;;-1.72;73.19;98427.88;110155;1247;69438;-67
2022/01/16 07:49:12;;;;;;;57.90;33.90;;;;;;;-1.72;73.21;98419.67;110164;1249;59676;-69
2022/01/16 07:51:41;;;;;;;63.40;37.50;;;;;;;-1.76;73.71;98419.87;109982;1251;59720;-67
2022/01/16 07:54:12;;;;;;;54.20;29.20;;;;;;;-1.89;74.05;98422.36;110009;1250;72271;-67
2022/01/16 07:56:41;;;;;;;48.30;25.40;;;;;;;-1.86;74.35;98418.08;110143;1250;68753;-68
2022/01/16 07:59:10;;;;;;;37.30;23.40;;;;;;;-1.73;74.55;98415.23;110089;1250;69220;-67
2022/01/16 08:01:39;;;;;;;54.30;30.70;;;;;;;-1.61;74.02;98419.92;110164;1248;59736;-66
2022/01/16 08:04:08;;;;;;;35.70;21.50;;;;;;;-1.51;74.09;98424.63;110182;1248;59674;-68
2022/01/16 08:06:37;;;;;;;41.30;23.20;;;;;;;-1.40;74.14;98427.61;109890;1251;72199;-67
2022/01/16 08:09:06;;;;;;;53.80;31.30;;;;;;;-1.26;73.43;98431.77;109941;1250;68640;-67
2022/01/16 08:11:35;;;;;;;42.20;25.80;;;;;;;-1.19;73.10;98435.27;110124;1248;69996;-67
2022/01/16 08:14:04;;;;;;;37.00;21.80;;;;;;;-1.10;72.78;98433.65;110180;1248;59758;-68
2022/01/16 08:16:33;;;;;;;43.80;24.70;;;;;;;-0.95;72.54;98431.80;110111;1247;59684;-67
2022/01/16 08:19:02;;;;;;;35.80;21.00;;;;;;;-0.75;72.13;98437.05;110112;1249;71476;-69
2022/01/16 08:21:31;;;;;;;59.70;36.00;;;;;;;-0.55;71.25;98435.12;110117;1250;68555;-67
2022/01/16 08:24:03;;;;;;;62.00;37.50;;;;;;;-0.69;69.80;98435.95;110117;1248;67618;-67
2022/01/16 08:26:33;;;;;;;65.70;33.80;;;;;;;-1.14;70.87;98431.98;110210;1249;59693;-66
2022/01/16 08:29:02;;;;;;;63.80;38.10;;;;;;;-1.40;71.92;98428.30;110183;1247;59698;-67
2022/01/16 08:31:31;;;;;;;55.60;34.60;;;;;;;-1.61;72.61;98429.83;110174;1248;71945;-67
2022/01/16 08:34:00;;;;;;;65.30;36.40;;;;;;;-1.76;73.03;98430.81;110149;1248;69170;-69
2022/01/16 08:36:28;;;;;;;43.40;25.40;;;;;;;-1.89;73.86;98430.73;110138;1250;69311;-67
2022/01/16 08:38:58;;;;;;;53.10;30.60;;;;;;;-1.85;73.92;98432.91;110086;1249;60111;-68
2022/01/16 08:41:26;;;;;;;60.40;35.00;;;;;;;-1.88;74.05;98431.59;110150;1248;59662;-67
2022/01/16 08:43:55;;;;;;;59.20;35.10;;;;;;;-1.97;74.66;98437.80;110180;1250;71680;-66
2022/01/16 08:46:24;;;;;;;60.50;34.30;;;;;;;-1.97;75.08;98441.71;110173;1248;69053;-68
2022/01/16 08:48:53;;;;;;;55.20;30.50;;;;;;;-2.00;74.93;98442.42;110072;1250;70366;-67
2022/01/16 08:51:22;;;;;;;55.40;32.00;;;;;;;-2.02;74.92;98441.75;110167;1248;59786;-67
2022/01/16 08:53:51;;;;;;;48.90;28.80;;;;;;;-2.11;75.24;98439.23;110189;1250;60123;-67
2022/01/16 08:56:20;;;;;;;38.60;23.90;;;;;;;-2.02;75.41;98436.80;110187;1247;70792;-66
2022/01/16 08:58:49;;;;;;;47.70;24.80;;;;;;;-1.83;74.23;98434.29;110129;1250;66614;-68
2022/01/16 09:01:18;;;;;;;38.00;22.40;;;;;;;-1.55;73.16;98427.89;110117;1249;69404;-68
2022/01/16 09:03:47;;;;;;;42.70;25.50;;;;;;;-0.60;70.76;98423.32;110179;1249;59821;-67
2022/01/16 09:06:17;;;;;;;30.40;17.30;;;;;;;0.78;68.52;98419.92;110129;1251;59749;-68
2022/01/16 09:08:46;;;;;;;38.80;23.50;;;;;;;2.54;63.15;98421.52;110060;1250;70766;-68
2022/01/16 09:11:15;;;;;;;36.90;23.60;;;;;;;3.79;55.22;98420.09;110082;1251;69168;-68
2022/01/16 09:13:43;;;;;;;31.90;18.90;;;;;;;4.29;51.84;98408.20;109845;1250;237560;-67
2022/01/16 09:16:12;;;;;;;29.70;17.90;;;;;;;4.93;51.23;98401.45;109981;1249;59687;-69
2022/01/16 09:18:41;;;;;;;32.00;18.00;;;;;;;5.48;51.96;98401.03;110015;1250;59661;-67
2022/01/16 09:21:10;;;;;;;28.00;17.30;;;;;;;6.01;48.05;98394.73;110116;1248;71317;-69
2022/01/16 09:23:39;;;;;;;25.70;17.70;;;;;;;5.63;46.97;98386.13;110162;1248;67927;-68
2022/01/16 09:26:07;;;;;;;25.40;15.00;;;;;;;4.73;48.26;98383.81;110154;1251;69273;-68
2022/01/16 09:28:36;;;;;;;22.30;13.10;;;;;;;4.25;49.93;98380.91;110173;1248;59648;-68
2022/01/16 09:31:05;;;;;;;21.40;11.60;;;;;;;4.00;51.50;98387.55;110038;1247;60088;-68
2022/01/16 09:33:34;;;;;;;22.20;13.10;;;;;;;3.78;52.55;98385.27;110120;1250;70766;-70
2022/01/16 09:36:05;;;;;;;25.50;14.50;;;;;;;3.61;52.57;98377.17;110094;1250;68698;-69
2022/01/16 09:38:36;;;;;;;25.40;14.30;;;;;;;3.34;52.64;98377.09;110086;1250;69406;-70
2022/01/16 09:41:08;;;;;;;24.80;14.50;;;;;;;2.99;53.23;98373.91;109988;1251;59737;-67
2022/01/16 09:43:38;;;;;;;22.30;13.40;;;;;;;2.84;54.24;98366.08;109817;1251;59755;-69
2022/01/16 09:46:07;;;;;;;28.50;16.10;;;;;;;2.88;53.97;98364.25;110156;1250;71160;-68
2022/01/16 09:48:36;;;;;;;23.80;14.30;;;;;;;2.84;52.86;98365.05;110049;1250;68762;-68
2022/01/16 09:51:06;;;;;;;25.70;14.20;;;;;;;2.73;54.86;98362.39;109979;1250;69336;-67
2022/01/16 09:53:35;;;;;;;23.60;14.10;;;;;;;2.75;55.67;98366.98;110035;1250;59749;-68
2022/01/16 09:56:04;;;;;;;19.90;11.30;;;;;;;2.75;55.94;98368.70;110002;1250;59746;-68
2022/01/16 09:58:34;;;;;;;29.10;16.90;;;;;;;2.70;55.43;98369.20;110149;1247;71350;-67
2022/01/16 10:01:03;;;;;;;31.80;18.10;;;;;;;2.19;54.21;98365.65;110192;1247;67820;-68
2022/01/16 10:03:44;;;;;;;24.40;14.60;;;;;;;1.73;55.52;98366.02;110145;1250;69953;-69
2022/01/16 10:06:15;;;;;;;19.30;11.00;;;;;;;1.74;57.19;98370.45;110110;1250;59755;-69
2022/01/16 10:08:45;;;;;;;20.70;12.80;;;;;;;1.88;57.68;98367.58;110097;1250;59654;-69
2022/01/16 10:11:39;;;;;;;18.80;10.40;;;;;;;2.02;57.85;98367.26;110001;1250;71942;-68
2022/01/16 10:14:37;;;;;;;25.80;12.20;;;;;;;2.12;56.36;98372.20;110105;1247;67610;-72
2022/01/16 10:17:11;;;;;;;20.20;11.90;;;;;;;2.11;55.88;98367.58;110239;1247;70003;-69
2022/01/16 10:19:40;;;;;;;18.70;10.40;;;;;;;2.14;57.11;98361.98;110195;1248;59693;-70
2022/01/16 10:22:11;;;;;;;19.80;10.60;;;;;;;2.25;56.41;98363.59;110061;1251;59683;-68
2022/01/16 10:24:41;;;;;;;22.50;12.10;;;;;;;2.20;54.90;98361.84;110163;1248;71493;-68
2022/01/16 10:27:14;;;;;;;16.90;10.30;;;;;;;2.17;55.80;98359.67;110219;1247;68657;-69
2022/01/16 10:29:57;;;;;;;21.50;12.80;;;;;;;2.18;54.96;98353.80;110045;1249;70059;-69
2022/01/16 10:32:31;;;;;;;15.80;10.30;;;;;;;2.28;56.06;98351.50;110133;1250;59694;-69
2022/01/16 10:35:25;;;;;;;17.90;9.60;;;;;;;2.39;55.07;98347.09;110186;1248;59733;-69
2022/01/16 10:37:58;;;;;;;18.70;11.80;;;;;;;2.51;53.80;98338.36;109947;1250;72298;-68
2022/01/16 10:40:36;;;;;;;18.40;9.90;;;;;;;2.71;55.44;98338.00;109891;1251;67880;-68
2022/01/16 10:43:13;;;;;;;21.10;11.70;;;;;;;2.93;54.11;98335.16;109912;1250;69410;-67
2022/01/16 10:45:43;;;;;;;20.70;10.90;;;;;;;3.43;51.76;98333.08;110024;1250;59752;-71
2022/01/16 10:48:14;;;;;;;22.60;12.40;;;;;;;4.39;51.82;98323.66;110093;1250;59687;-69
2022/01/16 10:50:44;;;;;;;;;;;;;;;5.99;49.06;98309.52;110019;1250;71343;-67
2022/01/16 10:53:15;;;;;;;29.10;15.70;;;;;;;6.94;41.80;98303.63;110034;1250;69191;-67
2022/01/16 10:55:47;;;;;;;25.30;15.40;;;;;;;6.97;40.92;98303.15;109904;1250;69093;-68
2022/01/16 10:58:19;;;;;;;21.10;12.90;;;;;;;7.04;40.53;98302.66;110087;1250;59671;-67
2022/01/16 11:00:53;;;;;;;24.90;13.90;;;;;;;7.42;41.78;98303.54;110000;1250;59681;-67
2022/01/16 11:03:25;;;;;;;25.80;16.10;;;;;;;8.08;41.28;98301.30;109939;1251;71362;-68
2022/01/16 11:05:55;;;;;;;22.70;12.90;;;;;;;8.82;40.10;98305.97;109972;1249;68388;-67
2022/01/16 11:08:27;;;;;;;21.80;11.30;;;;;;;9.73;39.77;98304.61;110039;1250;68644;-68
2022/01/16 11:10:59;;;;;;;22.20;14.40;;;;;;;10.82;38.11;98308.66;110034;1250;59679;-69
2022/01/16 11:13:33;;;;;;;25.30;15.30;;;;;;;11.88;35.99;98302.84;110011;1250;59707;-68
2022/01/16 11:16:05;;;;;;;24.90;15.00;;;;;;;12.33;30.73;98290.65;109979;1248;70751;-68
2022/01/16 11:18:40;;;;;;;24.80;15.60;;;;;;;11.58;31.36;98288.30;110035;1249;68569;-68
2022/01/16 11:24:01;;;;;;;24.00;14.50;;;;;;;10.61;33.09;98279.21;109854;1250;59685;-69
2022/01/16 11:26:30;;;;;;;21.00;13.90;;;;;;;10.71;32.58;98275.31;109995;1250;59696;-68
2022/01/16 11:28:59;;;;;;;26.40;15.70;;;;;;;11.01;34.35;98272.31;110048;1250;71990;-71
2022/01/16 11:31:28;;;;;;;25.10;15.80;;;;;;;11.69;32.13;98268.94;109961;1250;68560;-69
2022/01/16 11:33:56;;;;;;;23.50;13.80;;;;;;;12.33;30.90;98257.98;109886;1251;69226;-69
2022/01/16 11:36:28;;;;;;;22.30;13.10;;;;;;;12.81;31.07;98257.73;109702;1253;59689;-68
2022/01/16 11:39:00;;;;;;;25.30;15.50;;;;;;;13.24;29.25;98253.34;110056;1250;59676;-70
2022/01/16 11:41:35;;;;;;;18.50;13.40;;;;;;;13.24;29.53;98251.41;110213;1247;71627;-70
2022/01/16 11:44:06;;;;;;;23.50;13.60;;;;;;;13.89;31.08;98246.43;110142;1247;68825;-71
2022/01/16 11:46:41;;;;;;;25.10;14.90;;;;;;;14.06;27.97;98240.79;110153;1247;68472;-69
2022/01/16 11:49:17;;;;;;;20.30;14.80;;;;;;;13.76;28.56;98236.20;110133;1248;59728;-68
2022/01/16 11:51:51;;;;;;;22.00;15.00;;;;;;;14.00;29.13;98234.58;110160;1247;59695;-70
2022/01/16 11:54:20;;;;;;;20.10;12.40;;;;;;;14.04;28.27;98230.10;110089;1249;70811;-68
2022/01/16 11:56:52;;;;;;;22.80;16.20;;;;;;;14.40;28.48;98238.13;110146;1247;69090;-68
2022/01/16 11:59:34;;;;;;;28.20;17.10;;;;;;;14.06;26.85;98231.70;110191;1248;69274;-69
2022/01/16 12:02:08;;;;;;;20.70;13.80;;;;;;;13.72;27.55;98232.03;110072;1248;59673;-70
2022/01/16 12:04:43;;;;;;;26.20;16.30;;;;;;;13.99;28.01;98230.92;110172;1248;59738;-68
2022/01/16 12:07:12;;;;;;;22.00;13.70;;;;;;;13.58;29.05;98224.31;110137;1248;70889;-69
2022/01/16 12:09:48;;;;;;;26.50;17.60;;;;;;;13.41;27.21;98222.19;110142;1247;68368;-69
2022/01/16 12:12:17;;;;;;;23.70;16.80;;;;;;;11.45;29.87;98215.96;110145;1247;69843;-70